Time;durP1;ratioP1;P1;durP2;ratioP2;P2;SDS_P1;SDS_P2;PMS_P1;PMS_P2;Temp;Humidity;BMP_temperature;BMP_pressure;BME280_temperature;BME280_humidity;BME280_pressure;Samples;Min_cycle;Max_cycle;Signal;HPM_P1;HPM_P2
2023/01/22 00:02:19;;;;;;;5.10;4.80;;;;;;;;;;5128881;27;20426;-67
2023/01/22 00:04:45;;;;;;;4.63;4.33;;;;;;;;;;5127849;27;21006;-67
2023/01/22 00:07:12;;;;;;;3.93;3.80;;;;;;;;;;5130551;27;20430;-68
2023/01/22 00:09:38;;;;;;;5.47;5.17;;;;;;;;;;5131092;27;20458;-68
2023/01/22 00:12:04;;;;;;;4.17;3.90;;;;;;;;;;5130208;27;20525;-69
2023/01/22 00:14:30;;;;;;;4.20;4.00;;;;;;;;;;5130521;27;20457;-67
2023/01/22 00:16:56;;;;;;;4.83;4.60;;;;;;;;;;5130405;27;20430;-69
2023/01/22 00:19:22;;;;;;;4.13;3.83;;;;;;;;;;5130303;27;20465;-68
2023/01/22 00:21:47;;;;;;;5.80;5.40;;;;;;;;;;5111867;27;20541;-68
2023/01/22 00:24:13;;;;;;;3.10;2.90;;;;;;;;;;5112136;27;20423;-67
2023/01/22 00:26:40;;;;;;;5.10;4.90;;;;;;;;;;5129708;27;20526;-67
2023/01/22 00:29:06;;;;;;;4.70;4.50;;;;;;;;;;5130183;27;20449;-68
2023/01/22 00:31:32;;;;;;;4.67;4.37;;;;;;;;;;5129752;27;20993;-67
2023/01/22 00:33:57;;;;;;;5.37;4.97;;;;;;;;;;5127649;27;20415;-68
2023/01/22 00:36:24;;;;;;;5.07;4.77;;;;;;;;;;5130315;27;20508;-67
2023/01/22 00:38:50;;;;;;;5.10;4.63;;;;;;;;;;5111575;28;20535;-70
2023/01/22 00:41:17;;;;;;;4.87;4.70;;;;;;;;;;5128805;27;20574;-71
2023/01/22 00:43:43;;;;;;;4.53;4.33;;;;;;;;;;5128305;27;20407;-67
2023/01/22 00:46:10;;;;;;;7.30;4.50;;;;;;;;;;5130478;28;20427;-68
2023/01/22 00:48:36;;;;;;;3.80;3.60;;;;;;;;;;5129650;28;20474;-73
2023/01/22 00:51:02;;;;;;;4.00;3.80;;;;;;;;;;5129731;27;20438;-68
2023/01/22 00:53:29;;;;;;;5.47;4.87;;;;;;;;;;5133672;27;20929;-68
2023/01/22 00:55:56;;;;;;;4.73;4.40;;;;;;;;;;5133015;27;20434;-67
2023/01/22 00:58:22;;;;;;;4.13;3.83;;;;;;;;;;5132155;27;20458;-66
2023/01/22 01:00:48;;;;;;;4.20;4.00;;;;;;;;;;5132078;27;20422;-68
2023/01/22 01:03:29;;;;;;;3.60;3.47;;;;;;;;;;5132085;27;20998;-68
2023/01/22 01:06:07;;;;;;;4.93;4.50;;;;;;;;;;5133754;27;20433;-66
2023/01/22 01:08:38;;;;;;;4.27;4.00;;;;;;;;;;5132315;27;20509;-67
2023/01/22 01:11:05;;;;;;;5.73;5.30;;;;;;;;;;5132230;27;20426;-67
2023/01/22 01:13:33;;;;;;;4.13;3.97;;;;;;;;;;5134341;27;20442;-68
2023/01/22 01:16:03;;;;;;;4.93;4.70;;;;;;;;;;5113987;27;21002;-69
2023/01/22 01:18:30;;;;;;;4.93;4.63;;;;;;;;;;5132511;27;20948;-67
2023/01/22 01:20:57;;;;;;;4.10;3.80;;;;;;;;;;5133020;27;20471;-67
2023/01/22 01:23:23;;;;;;;4.87;4.47;;;;;;;;;;5134121;27;20517;-68
2023/01/22 01:25:49;;;;;;;10.77;9.90;;;;;;;;;;5133321;27;20427;-67
2023/01/22 01:28:16;;;;;;;6.20;5.07;;;;;;;;;;5134583;27;20916;-68
2023/01/22 01:30:42;;;;;;;3.80;3.60;;;;;;;;;;5134050;27;20862;-66
2023/01/22 01:33:08;;;;;;;3.47;3.27;;;;;;;;;;5133244;27;20481;-67
2023/01/22 01:35:34;;;;;;;3.70;3.53;;;;;;;;;;5133907;27;20414;-67
2023/01/22 01:38:01;;;;;;;4.30;4.10;;;;;;;;;;5134174;27;20419;-68
2023/01/22 01:40:27;;;;;;;5.17;4.20;;;;;;;;;;5133935;27;20890;-67
2023/01/22 01:42:53;;;;;;;4.57;4.30;;;;;;;;;;5133624;27;20430;-70
2023/01/22 01:45:23;;;;;;;3.93;3.63;;;;;;;;;;5133677;27;20441;-68
2023/01/22 01:47:52;;;;;;;4.60;4.40;;;;;;;;;;5133258;27;20488;-68
2023/01/22 01:50:19;;;;;;;4.80;4.40;;;;;;;;;;5133592;27;20929;-67
2023/01/22 01:52:45;;;;;;;6.33;4.43;;;;;;;;;;5133011;27;20481;-67
2023/01/22 01:55:12;;;;;;;4.60;4.30;;;;;;;;;;5133428;27;20516;-68
2023/01/22 01:57:38;;;;;;;7.27;4.87;;;;;;;;;;5133777;27;20426;-67
2023/01/22 02:00:09;;;;;;;5.67;4.43;;;;;;;;;;5132397;27;20793;-67
2023/01/22 02:02:35;;;;;;;4.07;3.87;;;;;;;;;;5132737;27;20461;-72
2023/01/22 02:05:01;;;;;;;5.17;4.77;;;;;;;;;;5133000;27;20438;-69
2023/01/22 02:07:27;;;;;;;4.33;4.03;;;;;;;;;;5132925;27;20438;-67
2023/01/22 02:09:53;;;;;;;4.37;4.13;;;;;;;;;;5114864;27;20423;-67
2023/01/22 02:12:19;;;;;;;4.40;4.10;;;;;;;;;;5132622;27;20905;-67
2023/01/22 02:14:45;;;;;;;4.47;4.27;;;;;;;;;;5113866;27;20430;-67
2023/01/22 02:17:13;;;;;;;4.43;4.23;;;;;;;;;;5132202;27;20435;-69
2023/01/22 02:19:39;;;;;;;5.03;4.63;;;;;;;;;;5132848;27;20483;-70
2023/01/22 02:22:12;;;;;;;5.60;5.10;;;;;;;;;;5132441;27;20502;-67
2023/01/22 02:24:38;;;;;;;4.20;4.00;;;;;;;;;;5133181;27;20427;-67
2023/01/22 02:27:04;;;;;;;5.30;5.00;;;;;;;;;;5132615;27;20434;-67
2023/01/22 02:29:30;;;;;;;5.47;5.07;;;;;;;;;;5132869;27;20484;-67
2023/01/22 02:31:56;;;;;;;5.67;5.27;;;;;;;;;;5132307;27;20482;-66
2023/01/22 02:34:23;;;;;;;5.27;4.97;;;;;;;;;;5114567;27;20421;-68
2023/01/22 02:36:49;;;;;;;5.30;5.00;;;;;;;;;;5131951;27;20477;-68
2023/01/22 02:39:15;;;;;;;6.77;6.17;;;;;;;;;;5132670;27;20454;-68
2023/01/22 02:41:41;;;;;;;5.53;5.10;;;;;;;;;;5132694;27;20480;-67
2023/01/22 02:44:08;;;;;;;5.77;5.37;;;;;;;;;;5132716;27;20837;-67
2023/01/22 02:46:33;;;;;;;5.23;4.97;;;;;;;;;;5131582;27;20446;-67
2023/01/22 02:48:59;;;;;;;7.30;6.20;;;;;;;;;;5131944;27;20525;-67
2023/01/22 02:51:25;;;;;;;5.23;4.40;;;;;;;;;;5132040;27;20454;-67
2023/01/22 02:53:52;;;;;;;5.93;5.53;;;;;;;;;;5132571;27;20415;-67
2023/01/22 02:56:18;;;;;;;5.40;5.00;;;;;;;;;;5132487;27;20910;-66
2023/01/22 02:58:44;;;;;;;5.83;5.43;;;;;;;;;;5114305;27;20418;-68
2023/01/22 03:01:19;;;;;;;5.60;5.20;;;;;;;;;;5131565;27;20439;-68
2023/01/22 03:03:55;;;;;;;6.67;6.17;;;;;;;;;;5131433;27;20501;-68
2023/01/22 03:06:23;;;;;;;5.60;5.13;;;;;;;;;;5131491;27;20426;-69
2023/01/22 03:08:53;;;;;;;6.50;6.10;;;;;;;;;;5131878;27;20506;-68
2023/01/22 03:11:19;;;;;;;6.07;5.53;;;;;;;;;;5131193;27;20469;-68
2023/01/22 03:22:00;;;;;;;4.30;4.10;;;;;;;;;;5130708;27;20444;-66
2023/01/22 03:24:26;;;;;;;5.00;4.60;;;;;;;;;;5131961;27;20426;-68
2023/01/22 03:26:52;;;;;;;6.17;5.70;;;;;;;;;;5130850;27;20944;-68
2023/01/22 03:29:18;;;;;;;5.50;5.10;;;;;;;;;;5131260;27;20529;-68
2023/01/22 03:31:47;;;;;;;5.23;4.90;;;;;;;;;;5130275;27;20839;-68
2023/01/22 03:34:14;;;;;;;5.30;4.90;;;;;;;;;;5130751;27;20937;-68
2023/01/22 03:36:39;;;;;;;6.23;5.77;;;;;;;;;;5131147;27;20447;-66
2023/01/22 03:39:05;;;;;;;6.23;5.67;;;;;;;;;;5130233;27;20423;-69
2023/01/22 03:41:31;;;;;;;7.20;5.40;;;;;;;;;;5131107;27;20425;-66
2023/01/22 03:44:00;;;;;;;6.87;5.40;;;;;;;;;;5131031;27;20426;-68
2023/01/22 03:46:27;;;;;;;5.90;5.50;;;;;;;;;;5131015;27;20528;-67
2023/01/22 03:48:53;;;;;;;7.57;5.80;;;;;;;;;;5130849;27;20569;-68
2023/01/22 03:51:19;;;;;;;6.20;5.47;;;;;;;;;;5131046;27;20434;-68
2023/01/22 03:53:46;;;;;;;5.10;4.60;;;;;;;;;;5131208;27;20434;-67
2023/01/22 03:56:13;;;;;;;5.17;4.77;;;;;;;;;;5130951;27;20422;-67
2023/01/22 03:58:39;;;;;;;5.43;4.97;;;;;;;;;;5131525;27;20976;-67
2023/01/22 04:01:07;;;;;;;6.00;5.53;;;;;;;;;;5130394;27;20513;-67
2023/01/22 04:03:33;;;;;;;5.30;4.83;;;;;;;;;;5131036;27;20431;-69
2023/01/22 04:05:59;;;;;;;5.40;5.10;;;;;;;;;;5128190;27;20427;-68
2023/01/22 04:08:29;;;;;;;4.60;4.27;;;;;;;;;;5131066;27;20438;-68
2023/01/22 04:10:56;;;;;;;7.63;5.60;;;;;;;;;;5130259;27;20424;-70
2023/01/22 04:13:22;;;;;;;6.03;5.43;;;;;;;;;;5130748;27;20474;-68
2023/01/22 04:15:48;;;;;;;5.60;5.13;;;;;;;;;;5112583;27;20454;-66
2023/01/22 04:18:14;;;;;;;6.37;5.87;;;;;;;;;;5129773;27;20479;-67
2023/01/22 04:20:40;;;;;;;7.57;6.13;;;;;;;;;;5131234;27;20942;-67
2023/01/22 04:23:06;;;;;;;6.43;5.80;;;;;;;;;;5129802;27;20437;-67
2023/01/22 04:25:33;;;;;;;7.03;5.40;;;;;;;;;;5128293;27;20443;-68
2023/01/22 04:27:58;;;;;;;7.90;6.70;;;;;;;;;;5131124;27;20780;-69
2023/01/22 04:30:24;;;;;;;6.17;5.67;;;;;;;;;;5130783;27;20922;-69
2023/01/22 04:32:50;;;;;;;7.90;6.17;;;;;;;;;;5129644;27;20981;-67
2023/01/22 04:35:16;;;;;;;6.67;6.00;;;;;;;;;;5130323;27;20434;-68
2023/01/22 04:37:42;;;;;;;6.80;5.80;;;;;;;;;;5129311;27;20427;-69
2023/01/22 04:40:09;;;;;;;5.97;5.57;;;;;;;;;;5130315;27;20526;-66
2023/01/22 04:42:35;;;;;;;9.07;6.83;;;;;;;;;;5130185;27;20438;-69
2023/01/22 04:45:01;;;;;;;6.30;5.70;;;;;;;;;;5130210;27;20430;-70
2023/01/22 04:47:27;;;;;;;5.80;5.40;;;;;;;;;;5130151;28;20441;-69
2023/01/22 04:49:53;;;;;;;5.30;4.77;;;;;;;;;;5111571;28;20422;-68
2023/01/22 04:52:19;;;;;;;6.27;5.67;;;;;;;;;;5129829;28;20847;-67
2023/01/22 04:54:45;;;;;;;6.50;6.00;;;;;;;;;;5130555;28;20426;-68
2023/01/22 04:57:11;;;;;;;5.77;5.27;;;;;;;;;;5129863;27;20463;-68
2023/01/22 04:59:37;;;;;;;5.90;5.43;;;;;;;;;;5129914;28;20427;-67
2023/01/22 05:02:03;;;;;;;5.43;5.17;;;;;;;;;;5129267;28;20437;-68
2023/01/22 05:04:29;;;;;;;5.70;5.30;;;;;;;;;;5129106;28;20514;-68
2023/01/22 05:06:55;;;;;;;7.00;6.23;;;;;;;;;;5129386;28;20517;-68
2023/01/22 05:09:23;;;;;;;7.03;6.10;;;;;;;;;;5130179;28;20419;-67
2023/01/22 05:11:49;;;;;;;6.30;5.73;;;;;;;;;;5129866;28;20467;-67
2023/01/22 05:14:15;;;;;;;6.50;6.00;;;;;;;;;;5129729;28;20415;-67
2023/01/22 05:16:41;;;;;;;7.10;6.40;;;;;;;;;;5129875;28;20818;-68
2023/01/22 05:19:07;;;;;;;7.40;6.73;;;;;;;;;;5130035;28;20442;-68
2023/01/22 05:21:33;;;;;;;7.87;6.10;;;;;;;;;;5129599;28;20446;-68
2023/01/22 05:23:59;;;;;;;8.03;6.60;;;;;;;;;;5130181;28;20925;-67
2023/01/22 05:26:25;;;;;;;6.80;6.20;;;;;;;;;;5130112;28;20807;-67
2023/01/22 05:28:51;;;;;;;7.60;6.40;;;;;;;;;;5130173;28;20462;-68
2023/01/22 05:31:17;;;;;;;6.13;5.47;;;;;;;;;;5129506;28;20438;-67
2023/01/22 05:33:43;;;;;;;7.03;6.30;;;;;;;;;;5129097;28;20438;-67
2023/01/22 05:36:11;;;;;;;6.00;5.50;;;;;;;;;;5129959;28;20415;-69
2023/01/22 05:38:37;;;;;;;5.57;5.30;;;;;;;;;;5133475;27;20435;-68
2023/01/22 05:41:03;;;;;;;6.40;5.83;;;;;;;;;;5132766;27;20758;-67
2023/01/22 05:43:29;;;;;;;7.37;6.77;;;;;;;;;;5134067;27;20451;-66
2023/01/22 05:45:59;;;;;;;6.97;6.20;;;;;;;;;;5133499;27;20876;-66
2023/01/22 05:48:25;;;;;;;7.07;6.47;;;;;;;;;;5111108;28;20570;-66
2023/01/22 05:50:51;;;;;;;6.97;6.37;;;;;;;;;;5112363;28;20530;-67
2023/01/22 05:53:17;;;;;;;8.77;7.60;;;;;;;;;;5112727;28;20479;-66
2023/01/22 05:55:43;;;;;;;8.53;7.63;;;;;;;;;;5113151;28;20481;-66
2023/01/22 05:58:09;;;;;;;7.77;7.00;;;;;;;;;;5112995;28;20864;-67
2023/01/22 06:00:35;;;;;;;6.83;6.27;;;;;;;;;;5112781;28;20419;-67
2023/01/22 06:03:01;;;;;;;6.97;6.37;;;;;;;;;;5111590;28;20423;-67
2023/01/22 06:05:27;;;;;;;8.87;8.07;;;;;;;;;;5112378;28;20911;-68
2023/01/22 06:07:53;;;;;;;6.63;6.10;;;;;;;;;;5112705;28;20873;-68
2023/01/22 06:10:19;;;;;;;8.00;7.13;;;;;;;;;;5111642;28;20530;-67
2023/01/22 06:12:45;;;;;;;8.53;7.50;;;;;;;;;;5112484;28;20503;-67
2023/01/22 06:15:11;;;;;;;8.20;7.50;;;;;;;;;;5111818;28;20454;-67
2023/01/22 06:17:37;;;;;;;9.70;8.23;;;;;;;;;;5111599;28;20412;-66
2023/01/22 06:20:07;;;;;;;11.10;7.43;;;;;;;;;;5112959;28;20419;-67
2023/01/22 06:22:32;;;;;;;8.67;7.63;;;;;;;;;;5111686;28;20430;-68
2023/01/22 06:24:58;;;;;;;12.50;8.00;;;;;;;;;;5112067;28;20440;-67
2023/01/22 06:27:24;;;;;;;8.63;7.70;;;;;;;;;;5112520;28;20427;-69
2023/01/22 06:29:50;;;;;;;11.47;8.30;;;;;;;;;;5112773;28;20547;-67
2023/01/22 06:32:16;;;;;;;8.47;7.57;;;;;;;;;;5110756;28;20467;-69
2023/01/22 06:34:42;;;;;;;9.23;7.90;;;;;;;;;;5112335;28;20440;-69
2023/01/22 06:37:09;;;;;;;8.57;7.67;;;;;;;;;;5112320;28;20412;-67
2023/01/22 06:39:34;;;;;;;7.97;7.17;;;;;;;;;;5111301;28;20919;-67
2023/01/22 06:42:00;;;;;;;9.20;8.00;;;;;;;;;;5111279;28;20436;-68
2023/01/22 06:44:26;;;;;;;12.20;8.10;;;;;;;;;;5110347;28;20475;-68
2023/01/22 06:46:52;;;;;;;8.00;7.20;;;;;;;;;;5111636;28;20793;-66
2023/01/22 06:49:18;;;;;;;7.43;6.73;;;;;;;;;;5109389;28;20471;-67
2023/01/22 06:51:44;;;;;;;10.47;7.80;;;;;;;;;;5111853;28;20520;-68
2023/01/22 06:54:11;;;;;;;10.93;7.03;;;;;;;;;;5111151;28;20440;-69
2023/01/22 06:56:37;;;;;;;7.80;7.00;;;;;;;;;;5111979;28;20416;-67
2023/01/22 06:59:03;;;;;;;7.57;6.90;;;;;;;;;;5111394;28;20540;-68
2023/01/22 07:01:29;;;;;;;8.63;7.73;;;;;;;;;;5111187;28;20473;-66
2023/01/22 07:03:55;;;;;;;6.90;6.30;;;;;;;;;;5112148;28;20865;-68
2023/01/22 07:06:22;;;;;;;8.13;7.33;;;;;;;;;;5111851;28;20433;-67
2023/01/22 07:08:48;;;;;;;9.97;7.70;;;;;;;;;;5112022;28;20498;-69
2023/01/22 07:11:15;;;;;;;9.27;7.80;;;;;;;;;;5111222;28;20916;-67
2023/01/22 07:13:41;;;;;;;9.00;8.13;;;;;;;;;;5111713;28;20457;-68
2023/01/22 07:16:07;;;;;;;8.43;7.70;;;;;;;;;;5111549;28;20825;-67
2023/01/22 07:18:33;;;;;;;11.37;7.27;;;;;;;;;;5111303;28;20447;-68
2023/01/22 07:21:00;;;;;;;8.83;7.93;;;;;;;;;;5110885;28;20435;-67
2023/01/22 07:23:26;;;;;;;9.00;8.10;;;;;;;;;;5109366;28;20432;-68
2023/01/22 07:25:52;;;;;;;7.33;6.63;;;;;;;;;;5109150;28;20459;-67
2023/01/22 07:28:18;;;;;;;9.23;7.73;;;;;;;;;;5111112;28;20858;-68
2023/01/22 07:30:47;;;;;;;9.07;7.90;;;;;;;;;;5110381;28;20492;-67
2023/01/22 07:33:13;;;;;;;7.43;6.30;;;;;;;;;;5110277;28;20479;-67
2023/01/22 07:35:39;;;;;;;9.67;8.00;;;;;;;;;;5110913;28;20439;-68
2023/01/22 07:38:05;;;;;;;9.63;8.10;;;;;;;;;;5110146;28;20416;-67
2023/01/22 07:40:31;;;;;;;8.30;7.50;;;;;;;;;;5109915;28;20420;-67
2023/01/22 07:42:57;;;;;;;15.50;8.60;;;;;;;;;;5110609;28;20438;-68
2023/01/22 07:45:24;;;;;;;12.43;8.30;;;;;;;;;;5110360;28;20436;-66
2023/01/22 07:47:54;;;;;;;8.87;8.00;;;;;;;;;;5114670;27;20482;-68
2023/01/22 07:50:23;;;;;;;10.97;8.60;;;;;;;;;;5130466;27;20431;-68
2023/01/22 07:52:49;;;;;;;10.57;8.20;;;;;;;;;;5130226;27;20477;-67
2023/01/22 07:55:15;;;;;;;9.13;8.23;;;;;;;;;;5127235;27;20475;-66
2023/01/22 07:57:41;;;;;;;8.47;7.30;;;;;;;;;;5112144;27;20568;-67
2023/01/22 08:00:11;;;;;;;9.40;7.43;;;;;;;;;;5130362;27;20505;-67
2023/01/22 08:02:37;;;;;;;10.00;8.40;;;;;;;;;;5128446;27;20423;-69
2023/01/22 08:05:04;;;;;;;11.70;8.83;;;;;;;;;;5130108;27;20913;-67
2023/01/22 08:07:30;;;;;;;9.77;7.93;;;;;;;;;;5129403;27;20435;-69
2023/01/22 08:09:56;;;;;;;8.83;7.77;;;;;;;;;;5128432;27;20782;-69
2023/01/22 08:12:22;;;;;;;14.33;8.40;;;;;;;;;;5129007;27;22321;-67
2023/01/22 08:14:48;;;;;;;8.47;7.67;;;;;;;;;;5129731;27;20431;-70
2023/01/22 08:17:14;;;;;;;8.73;7.83;;;;;;;;;;5129343;27;20461;-69
2023/01/22 08:19:40;;;;;;;7.77;6.97;;;;;;;;;;5129301;27;20422;-67
2023/01/22 08:22:06;;;;;;;9.40;8.50;;;;;;;;;;5130525;27;20422;-67
2023/01/22 08:24:35;;;;;;;9.67;8.07;;;;;;;;;;5120368;27;20463;-69
2023/01/22 08:27:02;;;;;;;8.03;6.87;;;;;;;;;;5128204;27;20430;-67
2023/01/22 08:29:28;;;;;;;7.13;6.63;;;;;;;;;;5130197;27;20422;-68
2023/01/22 08:31:54;;;;;;;7.37;6.77;;;;;;;;;;5128536;27;20822;-67
2023/01/22 08:34:20;;;;;;;8.70;7.37;;;;;;;;;;5130107;27;20453;-67
2023/01/22 08:36:46;;;;;;;7.20;6.50;;;;;;;;;;5128874;27;20431;-69
2023/01/22 08:39:12;;;;;;;11.10;7.70;;;;;;;;;;5130135;27;20442;-69
2023/01/22 08:41:39;;;;;;;7.50;5.57;;;;;;;;;;5127797;27;20458;-70
2023/01/22 08:44:05;;;;;;;9.00;8.07;;;;;;;;;;5129235;27;20982;-71
2023/01/22 08:46:31;;;;;;;8.17;7.47;;;;;;;;;;5128233;27;20438;-70
2023/01/22 08:48:57;;;;;;;6.93;6.33;;;;;;;;;;5129839;28;20549;-70
2023/01/22 08:51:25;;;;;;;10.13;7.60;;;;;;;;;;5129968;28;20998;-71
2023/01/22 08:53:51;;;;;;;7.83;6.97;;;;;;;;;;5129832;28;20443;-70
2023/01/22 08:56:17;;;;;;;7.80;7.10;;;;;;;;;;5128025;28;20508;-70
2023/01/22 08:58:43;;;;;;;9.43;7.50;;;;;;;;;;5129981;28;20525;-70
2023/01/22 09:01:14;;;;;;;7.77;7.03;;;;;;;;;;5129561;28;20426;-72
2023/01/22 09:03:40;;;;;;;7.00;6.43;;;;;;;;;;5130167;28;20435;-69
2023/01/22 09:06:06;;;;;;;7.80;7.10;;;;;;;;;;5129508;28;20441;-68
2023/01/22 09:08:32;;;;;;;7.47;6.20;;;;;;;;;;5129882;28;20453;-67
2023/01/22 09:10:58;;;;;;;7.70;7.00;;;;;;;;;;5130256;27;20442;-67
2023/01/22 09:13:24;;;;;;;9.47;7.33;;;;;;;;;;5133210;27;20847;-66
2023/01/22 09:15:50;;;;;;;7.20;6.70;;;;;;;;;;5131807;27;20438;-68
2023/01/22 09:18:16;;;;;;;7.87;7.17;;;;;;;;;;5112740;27;20426;-68
2023/01/22 09:20:44;;;;;;;8.87;7.67;;;;;;;;;;5130530;27;20437;-68
2023/01/22 09:23:10;;;;;;;8.03;7.30;;;;;;;;;;5132999;27;20500;-66
2023/01/22 09:25:36;;;;;;;7.23;6.73;;;;;;;;;;5132735;27;20426;-67
2023/01/22 09:28:06;;;;;;;8.60;7.87;;;;;;;;;;5133297;27;20426;-68
2023/01/22 09:30:32;;;;;;;9.70;6.73;;;;;;;;;;5131842;27;20513;-72
2023/01/22 09:32:58;;;;;;;6.87;6.30;;;;;;;;;;5132497;27;20568;-71
2023/01/22 09:35:26;;;;;;;6.40;5.87;;;;;;;;;;5132124;27;20461;-66
2023/01/22 09:37:52;;;;;;;6.37;5.87;;;;;;;;;;5133007;27;20455;-68
2023/01/22 09:40:31;;;;;;;7.40;7.00;;;;;;;;;;5132779;27;20422;-67
2023/01/22 09:43:02;;;;;;;6.77;6.17;;;;;;;;;;5132547;27;20426;-69
2023/01/22 09:45:28;;;;;;;6.93;6.47;;;;;;;;;;5133031;27;20418;-71
2023/01/22 09:47:58;;;;;;;6.37;6.07;;;;;;;;;;5110686;28;20835;-70
2023/01/22 09:50:30;;;;;;;6.87;5.00;;;;;;;;;;5112686;28;20408;-70
2023/01/22 09:52:58;;;;;;;7.73;7.03;;;;;;;;;;5110614;28;20896;-70
2023/01/22 09:55:29;;;;;;;6.77;6.27;;;;;;;;;;5112218;28;20427;-70
2023/01/22 09:57:56;;;;;;;6.37;5.77;;;;;;;;;;5113062;28;20442;-70
2023/01/22 10:00:46;;;;;;;7.27;6.57;;;;;;;;;;5112111;28;20841;-70
2023/01/22 10:03:28;;;;;;;5.27;4.97;;;;;;;;;;5112303;28;20435;-70
2023/01/22 10:06:00;;;;;;;7.00;6.60;;;;;;;;;;5111321;28;20454;-70
2023/01/22 10:08:52;;;;;;;6.73;6.10;;;;;;;;;;5113009;28;20427;-66
2023/01/22 10:11:19;;;;;;;6.07;5.67;;;;;;;;;;5107913;28;20515;-69
2023/01/22 10:13:45;;;;;;;7.37;6.67;;;;;;;;;;5112109;28;20919;-69
2023/01/22 10:16:11;;;;;;;6.93;6.33;;;;;;;;;;5111102;28;20439;-70
2023/01/22 10:18:52;;;;;;;5.73;5.43;;;;;;;;;;5112604;28;20430;-70
2023/01/22 10:21:18;;;;;;;6.57;6.03;;;;;;;;;;5111301;28;20432;-71
2023/01/22 10:23:44;;;;;;;6.23;5.73;;;;;;;;;;5111207;28;20416;-68
2023/01/22 10:26:10;;;;;;;6.00;5.70;;;;;;;;;;5111523;28;20805;-67
2023/01/22 10:28:36;;;;;;;5.80;5.40;;;;;;;;;;5112199;28;20445;-67
2023/01/22 10:31:02;;;;;;;5.77;5.23;;;;;;;;;;5111437;28;20472;-72
2023/01/22 10:33:28;;;;;;;6.77;6.10;;;;;;;;;;5112650;28;20479;-69
2023/01/22 10:35:55;;;;;;;4.57;4.37;;;;;;;;;;5109755;28;20424;-70
2023/01/22 10:38:29;;;;;;;6.50;6.07;;;;;;;;;;5112297;28;20420;-70
2023/01/22 10:40:57;;;;;;;6.30;5.80;;;;;;;;;;5111488;28;20416;-66
2023/01/22 10:43:29;;;;;;;7.23;6.53;;;;;;;;;;5111763;28;20466;-70
2023/01/22 10:46:00;;;;;;;7.10;6.40;;;;;;;;;;5110087;28;20427;-68
2023/01/22 10:48:26;;;;;;;6.47;6.00;;;;;;;;;;5110850;28;20459;-68
2023/01/22 10:51:00;;;;;;;6.80;6.30;;;;;;;;;;5111622;28;21016;-71
2023/01/22 10:53:29;;;;;;;5.40;5.10;;;;;;;;;;5111843;28;20478;-69
2023/01/22 10:55:57;;;;;;;6.97;6.47;;;;;;;;;;5109056;28;20432;-72
2023/01/22 10:58:24;;;;;;;6.33;5.47;;;;;;;;;;5111577;28;20440;-72
2023/01/22 11:00:58;;;;;;;6.30;5.88;;;;;;;;;;5111238;28;20463;-72
2023/01/22 11:03:28;;;;;;;6.07;5.63;;;;;;;;;;5110024;28;20178;-71
2023/01/22 11:05:57;;;;;;;6.30;5.63;;;;;;;;;;5111142;28;20451;-69
2023/01/22 11:08:28;;;;;;;6.40;5.90;;;;;;;;;;5110115;28;20511;-68
2023/01/22 11:10:57;;;;;;;5.70;5.20;;;;;;;;;;5107079;28;20890;-67
2023/01/22 11:13:25;;;;;;;6.60;6.20;;;;;;;;;;5110290;28;20483;-67
2023/01/22 11:15:57;;;;;;;6.73;6.30;;;;;;;;;;5110293;28;20431;-71
2023/01/22 11:18:43;;;;;;;6.70;6.30;;;;;;;;;;5110121;28;20526;-67
2023/01/22 11:21:14;;;;;;;6.23;5.80;;;;;;;;;;5110945;28;20415;-67
2023/01/22 11:23:42;;;;;;;6.53;6.00;;;;;;;;;;5109273;28;20496;-68
2023/01/22 11:26:14;;;;;;;7.07;6.37;;;;;;;;;;5109057;28;20435;-69
2023/01/22 11:28:40;;;;;;;6.70;6.20;;;;;;;;;;5110473;28;20431;-67
2023/01/22 11:31:33;;;;;;;8.03;6.17;;;;;;;;;;5110531;28;20506;-67
2023/01/22 11:34:22;;;;;;;8.30;7.40;;;;;;;;;;5105078;28;20459;-69
2023/01/22 11:36:51;;;;;;;6.03;5.67;;;;;;;;;;5103024;28;20432;-69
2023/01/22 11:39:29;;;;;;;6.23;5.73;;;;;;;;;;5109632;28;20502;-69
2023/01/22 11:42:00;;;;;;;5.90;5.50;;;;;;;;;;5110816;28;20420;-70
2023/01/22 11:44:32;;;;;;;5.80;5.50;;;;;;;;;;5109920;28;20506;-66
2023/01/22 11:47:17;;;;;;;6.40;5.90;;;;;;;;;;5109520;28;21013;-67
2023/01/22 11:49:49;;;;;;;5.30;4.90;;;;;;;;;;5089893;28;20519;-66
2023/01/22 11:52:18;;;;;;;6.30;5.90;;;;;;;;;;5090435;28;20559;-70
2023/01/22 11:54:50;;;;;;;6.13;5.67;;;;;;;;;;5088645;28;20433;-66
2023/01/22 11:57:30;;;;;;;6.20;5.73;;;;;;;;;;5086311;28;20437;-66
2023/01/22 12:00:16;;;;;;;6.80;6.30;;;;;;;;;;5088479;28;20432;-66
2023/01/22 12:02:42;;;;;;;7.67;7.00;;;;;;;;;;5088242;28;20897;-66
2023/01/22 12:05:12;;;;;;;5.83;5.53;;;;;;;;;;5088804;28;21002;-63
2023/01/22 12:07:44;;;;;;;5.07;4.77;;;;;;;;;;5088039;28;20952;-67
2023/01/22 12:10:13;;;;;;;6.23;5.83;;;;;;;;;;5089648;28;20998;-69
2023/01/22 12:12:49;;;;;;;6.37;5.60;;;;;;;;;;5087474;28;20476;-73
2023/01/22 12:15:36;;;;;;;5.63;5.27;;;;;;;;;;5087232;28;20547;-72
2023/01/22 12:18:08;;;;;;;5.30;5.00;;;;;;;;;;5037386;28;20496;-68
2023/01/22 12:20:34;;;;;;;4.13;3.93;;;;;;;;;;5085482;28;20444;-70
2023/01/22 12:23:22;;;;;;;5.50;5.00;;;;;;;;;;5087644;28;20432;-68
2023/01/22 12:25:52;;;;;;;8.83;8.03;;;;;;;;;;5074766;28;20443;-72
2023/01/22 12:28:22;;;;;;;5.23;4.93;;;;;;;;;;5084029;28;20425;-70
2023/01/22 12:30:55;;;;;;;5.03;4.73;;;;;;;;;;5085865;28;20539;-68
2023/01/22 12:33:24;;;;;;;5.00;4.70;;;;;;;;;;5087146;28;20490;-69
2023/01/22 12:35:51;;;;;;;4.23;3.93;;;;;;;;;;5086643;28;20464;-67
2023/01/22 12:38:34;;;;;;;4.43;4.17;;;;;;;;;;5088399;28;20425;-68
2023/01/22 12:41:19;;;;;;;3.77;3.47;;;;;;;;;;5086462;28;20432;-68
2023/01/22 12:43:54;;;;;;;3.50;3.40;;;;;;;;;;5088346;28;20471;-69
2023/01/22 12:46:24;;;;;;;3.60;3.50;;;;;;;;;;5085134;28;20440;-71
2023/01/22 12:48:54;;;;;;;4.20;4.00;;;;;;;;;;5099499;28;20471;-71
2023/01/22 12:51:27;;;;;;;3.60;3.33;;;;;;;;;;5107738;28;21214;-70
2023/01/22 12:53:53;;;;;;;4.17;3.97;;;;;;;;;;5106772;28;20451;-69
2023/01/22 12:56:30;;;;;;;4.10;4.00;;;;;;;;;;5107541;28;20431;-69
2023/01/22 12:58:56;;;;;;;3.70;3.60;;;;;;;;;;5107091;28;20430;-69
2023/01/22 13:01:23;;;;;;;5.50;5.20;;;;;;;;;;5102748;28;20496;-69
2023/01/22 13:04:00;;;;;;;3.90;3.80;;;;;;;;;;5108085;28;20432;-70
2023/01/22 13:06:30;;;;;;;4.77;4.47;;;;;;;;;;5103608;28;20451;-69
2023/01/22 13:08:55;;;;;;;4.73;4.53;;;;;;;;;;5106737;28;20428;-72
2023/01/22 13:11:35;;;;;;;4.33;4.13;;;;;;;;;;5106946;28;20860;-71
2023/01/22 13:14:07;;;;;;;4.80;4.50;;;;;;;;;;5107125;28;20962;-68
2023/01/22 13:16:36;;;;;;;3.80;3.50;;;;;;;;;;5105871;28;20456;-68
2023/01/22 13:19:15;;;;;;;3.60;3.50;;;;;;;;;;5107980;28;20453;-66
2023/01/22 13:21:41;;;;;;;3.93;3.70;;;;;;;;;;5109633;28;20407;-72
2023/01/22 13:24:15;;;;;;;4.07;3.87;;;;;;;;;;5107526;28;20835;-69
2023/01/22 13:26:48;;;;;;;3.47;3.37;;;;;;;;;;5109540;28;20428;-71
2023/01/22 13:29:20;;;;;;;3.83;3.73;;;;;;;;;;5106947;28;20416;-70
2023/01/22 13:31:56;;;;;;;3.60;3.40;;;;;;;;;;5108649;28;20923;-68
2023/01/22 13:34:22;;;;;;;2.70;2.60;;;;;;;;;;5107361;28;20534;-72
2023/01/22 13:36:49;;;;;;;3.67;3.57;;;;;;;;;;5109487;28;20915;-69
2023/01/22 13:39:25;;;;;;;3.60;3.50;;;;;;;;;;5108950;28;20431;-67
2023/01/22 13:41:52;;;;;;;3.23;3.23;;;;;;;;;;5108876;28;20522;-70
2023/01/22 13:44:22;;;;;;;3.70;3.50;;;;;;;;;;5107675;28;20432;-69
2023/01/22 13:46:48;;;;;;;3.00;2.90;;;;;;;;;;5108023;28;20892;-67
2023/01/22 13:49:22;;;;;;;2.83;2.83;;;;;;;;;;5178423;22;20445;-67
2023/01/22 13:51:49;;;;;;;3.70;3.60;;;;;;;;;;5010937;28;20485;-67
2023/01/22 13:54:29;;;;;;;2.53;2.43;;;;;;;;;;5008941;28;20443;-68
2023/01/22 13:56:55;;;;;;;2.97;2.87;;;;;;;;;;5028188;28;20481;-71
2023/01/22 13:59:35;;;;;;;2.73;2.73;;;;;;;;;;5030777;28;20443;-70
2023/01/22 14:02:19;;;;;;;2.27;2.27;;;;;;;;;;5030896;28;20427;-68
2023/01/22 14:04:45;;;;;;;2.80;2.70;;;;;;;;;;5013032;28;20443;-68
2023/01/22 14:07:21;;;;;;;2.80;2.80;;;;;;;;;;5014330;28;20427;-68
2023/01/22 14:09:47;;;;;;;2.70;2.60;;;;;;;;;;5031068;28;20454;-68
2023/01/22 14:12:15;;;;;;;3.40;3.30;;;;;;;;;;5030349;28;20452;-66
2023/01/22 14:14:42;;;;;;;3.50;3.40;;;;;;;;;;5030494;28;20653;-73
2023/01/22 14:17:18;;;;;;;3.30;3.20;;;;;;;;;;5030677;28;20519;-69
2023/01/22 14:19:44;;;;;;;3.13;3.03;;;;;;;;;;5014510;28;20493;-72
2023/01/22 14:22:10;;;;;;;8.60;3.10;;;;;;;;;;5031217;28;20443;-67
2023/01/22 14:24:36;;;;;;;3.53;3.10;;;;;;;;;;5031058;28;20538;-71
2023/01/22 14:27:02;;;;;;;3.83;3.73;;;;;;;;;;5030708;28;20435;-71
2023/01/22 14:29:28;;;;;;;2.97;2.87;;;;;;;;;;5032357;28;20467;-70
2023/01/22 14:31:54;;;;;;;4.17;4.07;;;;;;;;;;5031136;28;20982;-74
2023/01/22 14:34:21;;;;;;;3.50;3.20;;;;;;;;;;5013521;28;20448;-71
2023/01/22 14:36:48;;;;;;;3.43;3.33;;;;;;;;;;5030203;28;20435;-68
2023/01/22 14:39:14;;;;;;;3.10;3.00;;;;;;;;;;5031440;28;20435;-72
2023/01/22 14:41:40;;;;;;;3.30;3.30;;;;;;;;;;5030687;28;20423;-70
2023/01/22 14:44:06;;;;;;;4.87;4.43;;;;;;;;;;5030321;28;20443;-71
2023/01/22 14:46:32;;;;;;;4.40;4.20;;;;;;;;;;5030147;28;20435;-73
2023/01/22 14:49:00;;;;;;;3.90;3.80;;;;;;;;;;5014004;28;20439;-73
2023/01/22 14:51:26;;;;;;;3.40;3.30;;;;;;;;;;5031050;28;20479;-73
2023/01/22 14:53:52;;;;;;;3.37;3.27;;;;;;;;;;5030123;28;20502;-71
2023/01/22 14:56:18;;;;;;;3.43;3.33;;;;;;;;;;5029581;28;21298;-73
2023/01/22 14:58:45;;;;;;;4.03;3.93;;;;;;;;;;5030596;28;20594;-67